Huddleston, Arkansas
Current Conditions -  °F | °C
As of 12:53 PM on Friday 31 Oct 2014 (Local Time) from KMWT Reporting Station
Broken Clouds Broken Clouds  
Wind Chill: 61°   Ceiling: 4600
Heat Index: 61°   Visibility: 10mi
Dew Point: 42°   Wind: 6mph
Humidity: 50%   Direction: NA
Pressure: 30.25"   Gusts: NA
Location:  34.6364°N, 93.829°W
Report Text: KMWT 311753Z AUTO VRB05KT 10SM BKN046 BKN050 16/06 A3025 RMK AO2 SLP243 T01610056 10167 20078 51010
Loading
Personal Weather Stations






























Interactive Weather Map
Tropical Storm Tracking
New forecast layout! Learn more

10-Day Weather Forecast

Advertisements
Track Severe Weather on mobile